Time;durP1;ratioP1;P1;durP2;ratioP2;P2;SDS_P1;SDS_P2;PMS_P1;PMS_P2;Temp;Humidity;BMP_temperature;BMP_pressure;BME280_temperature;BME280_humidity;BME280_pressure;Samples;Min_cycle;Max_cycle;Signal;HPM_P1;HPM_P2
2022/12/27 00:01:45;;;;;;;5.05;1.70;;;6.40;99.90;;;;;;4963200;28;20327;-88
2022/12/27 00:04:11;;;;;;;3.70;1.55;;;6.50;99.90;;;;;;4969416;28;20054;-87
2022/12/27 00:06:38;;;;;;;3.70;1.50;;;6.40;99.90;;;;;;4942858;28;20781;-88
2022/12/27 00:09:05;;;;;;;4.28;1.50;;;6.50;99.90;;;;;;4987485;28;20030;-86
2022/12/27 00:11:31;;;;;;;3.63;1.40;;;6.50;99.90;;;;;;4977597;28;20406;-87
2022/12/27 00:14:02;;;;;;;4.60;1.63;;;6.50;99.90;;;;;;4983315;28;20265;-88
2022/12/27 00:16:28;;;;;;;3.13;1.73;;;6.50;99.90;;;;;;4967456;28;20089;-86
2022/12/27 00:18:54;;;;;;;3.33;1.77;;;6.50;99.90;;;;;;4960900;28;20030;-86
2022/12/27 00:21:20;;;;;;;3.95;1.95;;;6.50;99.90;;;;;;4967129;28;20030;-86
2022/12/27 00:23:52;;;;;;;3.60;1.35;;;6.60;99.90;;;;;;4976359;28;20034;-87
2022/12/27 00:26:21;;;;;;;3.13;1.20;;;6.60;99.90;;;;;;4985928;28;20498;-89
2022/12/27 00:28:48;;;;;;;3.35;1.27;;;6.60;99.90;;;;;;4954243;28;20057;-88
2022/12/27 00:31:15;;;;;;;3.80;1.17;;;6.60;99.90;;;;;;4981683;28;20499;-86
2022/12/27 00:33:43;;;;;;;2.42;1.10;;;6.60;99.90;;;;;;4964778;28;20030;-86
2022/12/27 00:36:13;;;;;;;4.68;1.30;;;6.60;99.90;;;;;;4964637;28;20160;-87
2022/12/27 00:38:40;;;;;;;3.60;1.10;;;6.60;99.90;;;;;;4963216;28;20104;-86
2022/12/27 00:41:07;;;;;;;3.17;1.52;;;6.60;99.90;;;;;;4988280;28;20033;-88
2022/12/27 00:43:33;;;;;;;4.17;1.10;;;6.60;99.90;;;;;;4972188;28;20026;-86
2022/12/27 00:45:59;;;;;;;3.50;1.15;;;6.60;99.90;;;;;;4986298;28;20667;-87
2022/12/27 00:48:25;;;;;;;4.30;1.23;;;6.60;99.90;;;;;;4947625;28;20534;-87
2022/12/27 00:51:01;;;;;;;2.53;1.00;;;6.70;99.90;;;;;;4973130;28;20259;-86
2022/12/27 00:53:28;;;;;;;4.07;1.20;;;6.70;99.90;;;;;;4999196;28;20056;-86
2022/12/27 00:55:54;;;;;;;4.75;1.45;;;6.70;99.90;;;;;;4980156;28;20124;-87
2022/12/27 00:58:20;;;;;;;2.28;1.10;;;6.70;99.90;;;;;;4976783;28;20142;-86
2022/12/27 01:00:47;;;;;;;2.58;1.13;;;6.70;99.90;;;;;;4972095;28;20318;-86
2022/12/27 01:03:12;;;;;;;3.97;1.30;;;6.60;99.90;;;;;;4952948;28;20021;-86
2022/12/27 01:05:38;;;;;;;4.28;1.40;;;6.70;99.90;;;;;;4989680;28;20469;-87
2022/12/27 01:08:05;;;;;;;3.20;1.20;;;6.70;99.90;;;;;;4999340;28;20473;-86
2022/12/27 01:10:31;;;;;;;4.05;1.50;;;6.70;99.90;;;;;;4989744;28;20163;-86
2022/12/27 01:13:00;;;;;;;3.37;1.07;;;6.70;99.90;;;;;;4979187;28;20027;-87
2022/12/27 01:15:26;;;;;;;4.25;1.30;;;6.70;99.90;;;;;;4987545;28;20041;-89
2022/12/27 01:17:51;;;;;;;3.17;1.10;;;6.60;99.90;;;;;;4975369;28;20033;-87
2022/12/27 01:20:17;;;;;;;3.00;1.00;;;6.70;99.90;;;;;;4964505;28;20061;-87
2022/12/27 01:22:43;;;;;;;3.33;1.30;;;6.70;99.90;;;;;;4968269;28;20152;-86
2022/12/27 01:25:08;;;;;;;3.70;1.00;;;6.70;99.90;;;;;;4973259;28;20030;-86
2022/12/27 01:27:34;;;;;;;2.42;1.13;;;6.70;99.90;;;;;;4963866;28;20021;-88
2022/12/27 01:30:00;;;;;;;2.90;1.20;;;6.70;99.90;;;;;;4978961;28;20028;-87
2022/12/27 01:32:26;;;;;;;2.15;1.10;;;6.70;99.90;;;;;;4986296;28;20096;-86
2022/12/27 01:34:52;;;;;;;3.83;1.30;;;6.70;99.90;;;;;;4954150;28;20172;-87
2022/12/27 01:37:17;;;;;;;2.05;1.10;;;6.70;99.90;;;;;;4980150;28;20113;-87
2022/12/27 01:39:43;;;;;;;2.63;0.98;;;6.70;99.90;;;;;;4976936;28;20052;-86
2022/12/27 01:45:09;;;;;;;2.95;1.13;;;6.60;99.90;;;;;;4993510;28;20037;-86
2022/12/27 01:47:53;;;;;;;4.20;1.42;;;6.60;99.90;;;;;;4974782;28;20025;-86
2022/12/27 01:50:24;;;;;;;3.28;1.10;;;6.60;99.90;;;;;;4964877;28;20037;-86
2022/12/27 01:52:58;;;;;;;2.17;1.30;;;6.60;99.90;;;;;;5009878;28;20034;-86
2022/12/27 01:55:36;;;;;;;3.47;1.10;;;6.60;99.90;;;;;;4998420;28;20224;-86
2022/12/27 01:58:07;;;;;;;1.75;1.10;;;6.60;99.90;;;;;;4967565;28;20394;-86
2022/12/27 02:00:33;;;;;;;3.08;1.15;;;6.60;99.90;;;;;;4974747;28;20060;-87
2022/12/27 02:03:02;;;;;;;4.70;1.50;;;6.60;99.90;;;;;;4991280;28;20053;-87
2022/12/27 02:05:29;;;;;;;3.05;1.00;;;6.60;99.90;;;;;;4953377;28;20247;-86
2022/12/27 02:08:10;;;;;;;4.47;1.58;;;6.60;99.90;;;;;;4973923;28;20030;-87
2022/12/27 02:10:37;;;;;;;3.08;0.95;;;6.60;99.90;;;;;;4985538;28;20327;-86
2022/12/27 02:13:05;;;;;;;5.13;1.52;;;6.60;99.90;;;;;;4982773;28;20088;-86
2022/12/27 02:15:31;;;;;;;2.80;1.07;;;6.60;99.90;;;;;;4956211;28;20592;-87
2022/12/27 02:17:57;;;;;;;2.08;0.80;;;6.60;99.90;;;;;;4970297;28;20058;-86
2022/12/27 02:20:24;;;;;;;1.60;0.73;;;6.60;99.90;;;;;;4963113;28;20982;-85
2022/12/27 02:26:33;;;;;;;1.70;0.90;;;6.60;99.90;;;;;;5000301;28;20084;-86
2022/12/27 02:29:21;;;;;;;2.53;0.90;;;6.50;99.90;;;;;;4967990;28;20059;-86
2022/12/27 02:32:03;;;;;;;1.77;0.90;;;6.50;99.90;;;;;;4971740;28;20363;-86
2022/12/27 02:34:53;;;;;;;2.70;1.08;;;6.50;99.90;;;;;;4985421;28;20532;-86
2022/12/27 02:37:23;;;;;;;3.58;0.90;;;6.50;99.90;;;;;;4933254;28;22764;-86
2022/12/27 02:39:50;;;;;;;3.53;1.23;;;6.50;99.90;;;;;;4982753;28;20034;-87
2022/12/27 02:54:08;;;;;;;2.38;1.25;;;6.50;99.90;;;;;;5004031;28;20824;-86
2022/12/27 02:57:09;;;;;;;4.07;1.20;;;6.40;99.90;;;;;;4950833;28;20862;-86
2022/12/27 03:03:19;;;;;;;5.10;1.35;;;6.40;99.90;;;;;;4944841;28;20721;-87
2022/12/27 03:05:41;;;;;;;3.28;1.10;;;6.50;99.90;;;;;;5005848;28;20041;-86
2022/12/27 03:08:16;;;;;;;3.03;1.35;;;6.50;99.90;;;;;;4950717;28;20509;-86
2022/12/27 03:16:54;;;;;;;1.90;1.10;;;6.50;99.90;;;;;;4973279;28;20933;-86
2022/12/27 03:25:30;;;;;;;1.60;1.00;;;6.50;99.90;;;;;;4963897;28;20030;-86
2022/12/27 03:39:51;;;;;;;1.97;0.93;;;6.50;99.90;;;;;;4971528;28;20017;-87
2022/12/27 03:45:09;;;;;;;2.80;1.25;;;6.50;99.90;;;;;;5003474;28;20531;-87
2022/12/27 03:48:01;;;;;;;2.40;1.00;;;6.50;99.90;;;;;;4960905;28;20780;-86
2022/12/27 03:50:48;;;;;;;3.83;0.90;;;6.50;99.90;;;;;;4985753;28;20722;-86
2022/12/27 03:53:27;;;;;;;3.43;1.00;;;6.40;99.90;;;;;;5004277;28;20085;-86
2022/12/27 03:55:53;;;;;;;2.58;1.00;;;6.40;99.90;;;;;;4960148;28;20137;-86
2022/12/27 03:58:19;;;;;;;2.45;0.95;;;6.40;99.90;;;;;;4971952;28;20060;-86
2022/12/27 04:00:45;;;;;;;3.27;1.00;;;6.40;99.90;;;;;;4986403;28;20508;-86
2022/12/27 04:03:11;;;;;;;1.67;0.80;;;6.40;99.90;;;;;;4958283;28;20037;-86
2022/12/27 04:05:36;;;;;;;1.20;0.70;;;6.40;99.90;;;;;;4984697;28;20241;-86
2022/12/27 04:35:25;;;;;;;3.92;1.35;;;6.40;99.90;;;;;;4969394;28;20186;-86
2022/12/27 04:37:50;;;;;;;3.50;1.08;;;6.40;99.90;;;;;;4988601;28;20030;-87
2022/12/27 04:56:42;;;;;;;4.43;1.55;;;6.40;99.90;;;;;;5007333;28;20032;-87
2022/12/27 05:02:03;;;;;;;3.40;1.45;;;6.30;99.90;;;;;;5000149;28;20075;-86
2022/12/27 05:04:34;;;;;;;3.53;1.50;;;6.40;99.90;;;;;;4981742;28;20037;-86
2022/12/27 05:13:58;;;;;;;3.80;1.48;;;6.30;99.90;;;;;;4972560;28;20506;-86
2022/12/27 05:15:17;;;;;;;2.85;1.27;;;6.40;99.90;;;;;;4963398;28;20037;-88
2022/12/27 05:17:43;;;;;;;2.57;1.30;;;6.30;99.90;;;;;;4967406;28;20022;-86
2022/12/27 05:20:09;;;;;;;3.00;1.42;;;6.30;99.90;;;;;;4980584;28;20453;-86
2022/12/27 05:25:37;;;;;;;4.03;1.60;;;6.30;99.90;;;;;;5002430;28;20386;-86
2022/12/27 05:28:09;;;;;;;2.88;1.27;;;6.30;99.90;;;;;;5006461;28;20028;-85
2022/12/27 05:30:36;;;;;;;3.97;1.30;;;6.40;99.90;;;;;;4974628;28;20832;-86
2022/12/27 05:33:02;;;;;;;4.57;1.88;;;6.40;99.90;;;;;;4968302;28;20040;-86
2022/12/27 05:35:29;;;;;;;3.17;1.30;;;6.40;99.90;;;;;;4980392;28;20149;-85
2022/12/27 05:37:56;;;;;;;2.90;1.40;;;6.40;99.90;;;;;;4963520;28;20060;-85
2022/12/27 05:40:23;;;;;;;2.95;1.35;;;6.40;99.90;;;;;;4989176;28;20025;-86
2022/12/27 05:42:49;;;;;;;2.97;1.20;;;6.30;99.90;;;;;;4992723;28;20057;-85
2022/12/27 05:45:15;;;;;;;2.13;1.30;;;6.30;99.90;;;;;;4949834;28;20033;-86
2022/12/27 05:47:41;;;;;;;2.60;1.20;;;6.30;99.90;;;;;;4972743;28;20432;-87
2022/12/27 05:50:08;;;;;;;2.88;1.40;;;6.30;99.90;;;;;;4992272;28;20033;-87
2022/12/27 05:52:35;;;;;;;3.65;1.50;;;6.30;99.90;;;;;;4972720;28;20269;-86
2022/12/27 05:55:01;;;;;;;3.97;1.42;;;6.30;99.90;;;;;;4976246;28;20044;-85
2022/12/27 05:57:27;;;;;;;3.47;1.43;;;6.30;99.90;;;;;;4986978;28;20029;-86
2022/12/27 05:59:52;;;;;;;2.70;1.35;;;6.30;99.90;;;;;;4988215;28;20041;-86
2022/12/27 06:02:18;;;;;;;3.63;1.60;;;6.30;99.90;;;;;;4950947;28;20686;-86
2022/12/27 06:04:44;;;;;;;3.97;1.50;;;6.30;99.90;;;;;;4967270;28;20018;-86
2022/12/27 06:07:10;;;;;;;4.00;1.53;;;6.30;99.90;;;;;;4952061;28;20033;-85
2022/12/27 06:09:36;;;;;;;6.65;1.60;;;6.30;99.90;;;;;;4958422;28;20498;-86
2022/12/27 06:12:02;;;;;;;3.30;1.48;;;6.30;99.90;;;;;;4987398;28;20033;-86
2022/12/27 06:14:28;;;;;;;4.55;1.60;;;6.30;99.90;;;;;;4974197;28;20665;-85
2022/12/27 06:16:54;;;;;;;4.37;1.30;;;6.30;99.90;;;;;;4949623;28;20759;-87
2022/12/27 06:19:20;;;;;;;3.10;1.30;;;6.30;99.90;;;;;;4986796;28;20033;-86
2022/12/27 06:21:46;;;;;;;5.22;1.50;;;6.30;99.90;;;;;;4962104;28;20030;-86
2022/12/27 06:24:11;;;;;;;3.80;1.50;;;6.30;99.90;;;;;;4957600;28;20030;-85
2022/12/27 06:26:37;;;;;;;4.13;1.60;;;6.30;99.90;;;;;;4976399;28;20288;-86
2022/12/27 06:29:04;;;;;;;5.50;1.65;;;6.30;99.90;;;;;;4971959;28;20118;-86
2022/12/27 06:31:30;;;;;;;5.32;1.73;;;6.30;99.90;;;;;;4947534;28;20041;-86
2022/12/27 06:33:56;;;;;;;3.58;2.00;;;6.30;99.90;;;;;;4953540;28;20033;-85
2022/12/27 06:36:25;;;;;;;3.00;1.30;;;6.20;99.90;;;;;;4955657;28;20283;-85
2022/12/27 06:38:51;;;;;;;3.55;1.45;;;6.30;99.90;;;;;;4957574;28;20029;-86
2022/12/27 06:41:17;;;;;;;5.57;2.22;;;6.30;99.90;;;;;;4962640;28;20267;-86
2022/12/27 06:43:44;;;;;;;4.27;1.53;;;6.30;99.90;;;;;;4975692;28;20039;-87
2022/12/27 06:46:11;;;;;;;4.20;1.80;;;6.20;99.90;;;;;;4967100;28;20030;-86
2022/12/27 06:48:37;;;;;;;4.95;1.60;;;6.30;99.90;;;;;;4983720;28;20057;-85
2022/12/27 06:51:04;;;;;;;4.07;1.80;;;6.30;99.90;;;;;;4964145;28;20068;-87
2022/12/27 06:53:29;;;;;;;4.17;1.73;;;6.30;99.90;;;;;;4965648;28;20775;-85
2022/12/27 06:55:55;;;;;;;4.13;1.40;;;6.30;99.90;;;;;;4962033;28;20453;-86
2022/12/27 06:58:21;;;;;;;5.77;1.97;;;6.30;99.90;;;;;;4957363;28;20621;-85
2022/12/27 07:00:47;;;;;;;9.75;2.53;;;6.40;99.90;;;;;;4989068;28;20484;-85
2022/12/27 07:03:12;;;;;;;3.30;1.40;;;6.40;99.90;;;;;;4964026;28;20500;-85
2022/12/27 07:05:39;;;;;;;5.53;1.80;;;6.30;99.90;;;;;;4986741;28;20435;-86
2022/12/27 07:08:05;;;;;;;4.55;1.50;;;6.30;99.90;;;;;;4986748;28;20037;-86
2022/12/27 07:10:31;;;;;;;3.60;1.70;;;6.30;99.90;;;;;;4963098;28;20100;-86
2022/12/27 07:12:57;;;;;;;2.93;1.40;;;6.30;99.90;;;;;;4960108;28;20817;-85
2022/12/27 07:15:23;;;;;;;4.60;1.67;;;6.30;99.90;;;;;;4971249;28;20052;-86
2022/12/27 07:17:49;;;;;;;4.05;1.40;;;6.30;99.90;;;;;;4992446;28;20076;-85
2022/12/27 07:20:15;;;;;;;2.90;1.40;;;6.30;99.90;;;;;;4953582;28;20108;-85
2022/12/27 07:22:40;;;;;;;2.63;1.50;;;6.30;99.90;;;;;;4985905;28;20116;-87
2022/12/27 07:25:06;;;;;;;3.27;1.50;;;6.40;99.90;;;;;;4977668;28;20061;-85
2022/12/27 07:27:33;;;;;;;4.70;1.60;;;6.40;99.90;;;;;;4948781;28;20653;-85
2022/12/27 07:29:59;;;;;;;3.88;1.75;;;6.40;99.90;;;;;;4990264;28;20030;-85
2022/12/27 07:32:25;;;;;;;5.13;1.60;;;6.40;99.90;;;;;;4973625;28;20084;-85
2022/12/27 07:34:50;;;;;;;3.53;1.50;;;6.40;99.90;;;;;;4945843;28;20030;-85
2022/12/27 07:37:16;;;;;;;3.90;1.50;;;6.40;99.90;;;;;;4970524;28;20032;-85
2022/12/27 07:39:44;;;;;;;3.10;1.45;;;6.40;99.90;;;;;;4954906;28;20056;-85
2022/12/27 07:42:09;;;;;;;3.60;1.40;;;6.40;99.90;;;;;;4979404;28;20034;-85
2022/12/27 07:44:35;;;;;;;2.70;1.40;;;6.40;99.90;;;;;;4957543;28;20032;-85
2022/12/27 07:47:01;;;;;;;2.45;1.40;;;6.40;99.90;;;;;;4988919;28;20627;-85
2022/12/27 07:49:27;;;;;;;2.58;1.30;;;6.40;99.90;;;;;;4971354;28;20567;-85
2022/12/27 07:51:53;;;;;;;3.73;1.50;;;6.40;99.90;;;;;;4952434;28;20556;-85
2022/12/27 07:54:18;;;;;;;3.60;1.63;;;6.40;99.90;;;;;;4986256;28;20593;-85
2022/12/27 07:56:44;;;;;;;3.80;1.52;;;6.40;99.90;;;;;;4956635;28;20696;-86
2022/12/27 07:59:12;;;;;;;4.63;1.67;;;6.40;99.90;;;;;;4978337;28;20026;-86
2022/12/27 08:04:23;;;;;;;3.45;1.40;;;6.40;99.90;;;;;;4997098;28;20037;-86
2022/12/27 08:06:49;;;;;;;3.43;1.60;;;6.40;99.90;;;;;;4955679;28;20268;-85
2022/12/27 08:09:22;;;;;;;3.78;1.40;;;6.40;99.90;;;;;;4978065;28;20091;-85
2022/12/27 08:11:48;;;;;;;2.90;1.23;;;6.40;99.90;;;;;;4966061;28;20138;-85
2022/12/27 08:14:14;;;;;;;3.40;1.30;;;6.50;99.90;;;;;;4992815;28;20024;-85
2022/12/27 08:16:40;;;;;;;4.63;1.65;;;6.50;99.90;;;;;;4972372;28;20490;-86
2022/12/27 08:19:06;;;;;;;4.22;1.52;;;6.50;99.90;;;;;;5001175;28;20032;-86
2022/12/27 08:21:32;;;;;;;3.43;1.40;;;6.50;99.90;;;;;;4986118;28;20035;-85
2022/12/27 08:23:57;;;;;;;3.88;1.50;;;6.60;99.90;;;;;;4960311;28;20355;-85
2022/12/27 08:26:23;;;;;;;4.13;1.93;;;6.60;99.90;;;;;;4967962;28;20052;-85
2022/12/27 08:28:49;;;;;;;3.35;1.52;;;6.70;99.90;;;;;;4956133;28;20031;-85
2022/12/27 08:31:14;;;;;;;4.10;1.90;;;6.80;99.90;;;;;;4975048;28;20120;-85
2022/12/27 08:33:41;;;;;;;2.92;1.63;;;6.80;99.90;;;;;;4973184;28;20053;-86
2022/12/27 08:36:09;;;;;;;4.05;1.90;;;7.00;99.90;;;;;;4972861;28;20096;-85
2022/12/27 08:38:35;;;;;;;4.97;1.80;;;7.00;99.90;;;;;;4976869;28;20147;-86
2022/12/27 08:41:01;;;;;;;2.70;1.58;;;7.20;99.90;;;;;;4946986;28;20060;-85
2022/12/27 08:43:30;;;;;;;2.88;1.50;;;7.30;99.90;;;;;;4960210;28;20033;-85
2022/12/27 08:46:07;;;;;;;3.42;1.80;;;7.30;99.90;;;;;;4974239;28;20247;-85
2022/12/27 08:48:35;;;;;;;6.63;1.93;;;7.40;99.90;;;;;;4989007;28;20022;-85
2022/12/27 08:51:05;;;;;;;4.55;1.60;;;7.40;99.90;;;;;;5003536;28;20260;-85
2022/12/27 08:53:31;;;;;;;3.72;1.67;;;7.40;99.90;;;;;;4976965;28;20022;-85
2022/12/27 08:55:57;;;;;;;2.97;1.58;;;7.40;99.90;;;;;;4942135;28;20029;-85
2022/12/27 08:58:23;;;;;;;4.27;2.07;;;7.40;99.90;;;;;;4955213;28;20021;-85
2022/12/27 09:00:50;;;;;;;3.25;1.58;;;7.40;99.90;;;;;;4970072;28;20377;-86
2022/12/27 09:03:20;;;;;;;4.93;1.88;;;7.50;99.90;;;;;;4989386;28;20030;-85
2022/12/27 09:05:48;;;;;;;3.90;1.80;;;7.50;99.90;;;;;;5004723;28;20235;-85
2022/12/27 09:08:15;;;;;;;3.33;1.70;;;7.50;99.90;;;;;;4991145;28;20033;-85
2022/12/27 09:10:41;;;;;;;6.00;1.53;;;7.60;99.90;;;;;;4950410;28;20083;-86
2022/12/27 09:13:07;;;;;;;4.03;2.00;;;7.70;99.90;;;;;;4970075;28;21176;-85
2022/12/27 09:15:32;;;;;;;3.47;1.40;;;7.80;99.90;;;;;;4952118;28;20517;-85
2022/12/27 09:17:58;;;;;;;3.75;1.60;;;7.90;99.90;;;;;;4958715;28;20412;-85
2022/12/27 09:20:24;;;;;;;3.53;1.38;;;7.90;99.90;;;;;;4970712;28;20031;-86
2022/12/27 09:22:50;;;;;;;4.30;1.40;;;8.10;99.90;;;;;;4988498;28;20228;-85
2022/12/27 09:25:16;;;;;;;4.43;1.58;;;8.20;99.90;;;;;;4949991;28;20025;-88
2022/12/27 09:27:42;;;;;;;3.45;1.40;;;8.30;99.90;;;;;;4969706;28;20080;-85
2022/12/27 09:30:08;;;;;;;3.80;1.60;;;8.40;99.90;;;;;;4994038;28;20021;-86
2022/12/27 09:32:34;;;;;;;3.03;1.40;;;8.50;99.90;;;;;;4963877;28;20131;-86
2022/12/27 09:35:01;;;;;;;2.83;1.40;;;8.60;99.90;;;;;;4976057;28;20495;-85
2022/12/27 09:37:26;;;;;;;4.53;2.00;;;8.60;99.90;;;;;;4969854;28;20017;-86
2022/12/27 09:39:52;;;;;;;3.50;1.60;;;8.60;99.90;;;;;;4987123;28;20025;-85
2022/12/27 09:42:25;;;;;;;2.38;1.42;;;8.60;99.90;;;;;;4958328;28;20152;-85
2022/12/27 09:45:16;;;;;;;3.27;1.73;;;8.80;99.90;;;;;;4990510;28;20025;-87
2022/12/27 09:47:53;;;;;;;2.90;1.50;;;8.90;99.90;;;;;;4945238;28;20025;-85
2022/12/27 09:50:59;;;;;;;3.25;1.40;;;9.00;99.90;;;;;;4986146;28;20029;-85
2022/12/27 09:53:36;;;;;;;3.25;1.50;;;9.20;99.90;;;;;;4945141;28;20762;-85
2022/12/27 09:56:03;;;;;;;2.97;1.50;;;9.30;99.90;;;;;;4967413;28;20765;-85
2022/12/27 09:58:32;;;;;;;3.73;1.50;;;9.60;99.90;;;;;;4963876;28;20034;-85
2022/12/27 10:00:59;;;;;;;1.95;1.23;;;9.70;99.90;;;;;;4952105;28;20728;-85
2022/12/27 10:03:26;;;;;;;3.47;1.50;;;10.00;99.90;;;;;;4974917;28;20418;-84
2022/12/27 10:06:01;;;;;;;2.83;1.40;;;10.30;99.90;;;;;;4962582;28;21292;-84
2022/12/27 10:08:53;;;;;;;3.05;1.40;;;10.60;99.90;;;;;;4989364;28;20322;-85
2022/12/27 10:11:42;;;;;;;4.17;1.50;;;10.90;99.90;;;;;;4979672;28;20041;-85
2022/12/27 10:14:25;;;;;;;2.72;1.40;;;11.10;99.90;;;;;;5006025;28;20018;-85
2022/12/27 10:17:14;;;;;;;2.38;1.40;;;11.30;99.90;;;;;;4962595;28;20017;-85
2022/12/27 10:20:15;;;;;;;3.28;1.75;;;11.40;99.90;;;;;;4976500;28;20056;-86
2022/12/27 10:22:55;;;;;;;4.05;1.63;;;11.40;99.90;;;;;;5007362;28;20226;-85
2022/12/27 10:25:23;;;;;;;3.23;1.30;;;11.40;99.90;;;;;;4983049;28;20037;-86
2022/12/27 10:28:08;;;;;;;2.72;1.25;;;11.40;99.90;;;;;;5000609;28;20061;-85
2022/12/27 10:30:34;;;;;;;3.45;1.50;;;11.40;99.90;;;;;;4977561;28;20250;-86
2022/12/27 10:32:59;;;;;;;2.97;1.30;;;11.40;99.90;;;;;;4967344;28;20109;-86
2022/12/27 10:35:27;;;;;;;5.38;1.65;;;11.40;99.90;;;;;;4958512;28;20025;-85
2022/12/27 10:37:53;;;;;;;2.90;1.35;;;11.50;99.90;;;;;;4971719;28;20040;-86
2022/12/27 10:40:24;;;;;;;2.28;1.30;;;11.40;99.90;;;;;;4977121;28;20053;-86
2022/12/27 10:43:03;;;;;;;2.87;1.73;;;11.50;99.90;;;;;;4956483;28;20087;-86
2022/12/27 10:45:33;;;;;;;3.45;1.70;;;11.50;99.90;;;;;;4978409;28;20025;-85
2022/12/27 10:48:19;;;;;;;3.17;1.65;;;11.50;99.90;;;;;;4972509;28;20114;-85
2022/12/27 10:51:07;;;;;;;4.20;1.67;;;11.50;99.90;;;;;;4979034;28;20050;-85
2022/12/27 10:53:40;;;;;;;3.55;1.50;;;11.40;99.90;;;;;;4954685;28;20656;-84
2022/12/27 10:56:37;;;;;;;5.43;1.90;;;11.40;99.90;;;;;;4990400;28;20017;-85
2022/12/27 10:59:15;;;;;;;4.75;1.75;;;11.40;99.90;;;;;;4951730;28;20615;-89
2022/12/27 11:01:42;;;;;;;4.20;2.08;;;11.40;99.90;;;;;;4989220;28;20131;-85
2022/12/27 11:04:12;;;;;;;3.30;1.50;;;11.40;99.90;;;;;;4983136;28;20542;-85
2022/12/27 11:06:39;;;;;;;4.82;1.83;;;11.50;99.90;;;;;;4967968;28;20243;-85
2022/12/27 11:09:26;;;;;;;3.43;1.50;;;11.50;99.90;;;;;;5001556;28;20029;-86
2022/12/27 11:12:11;;;;;;;4.82;1.75;;;11.60;99.90;;;;;;4979548;28;20037;-88
2022/12/27 11:14:37;;;;;;;4.45;1.52;;;11.70;99.90;;;;;;4977418;28;20033;-85
2022/12/27 11:17:12;;;;;;;3.42;1.50;;;11.90;99.90;;;;;;4984897;28;20048;-86
2022/12/27 11:19:45;;;;;;;4.47;1.58;;;12.00;99.90;;;;;;4987041;28;20424;-85
2022/12/27 11:22:12;;;;;;;2.30;1.30;;;12.10;99.90;;;;;;4950024;28;20022;-86
2022/12/27 11:24:47;;;;;;;4.05;1.50;;;12.30;99.90;;;;;;4974214;28;20041;-86
2022/12/27 11:27:26;;;;;;;3.28;1.60;;;12.30;99.90;;;;;;4977467;28;20030;-86
2022/12/27 11:29:55;;;;;;;4.40;1.70;;;12.30;99.90;;;;;;4994983;28;20032;-87
2022/12/27 11:32:22;;;;;;;3.25;1.38;;;12.30;99.90;;;;;;4962526;28;20025;-87
2022/12/27 11:34:51;;;;;;;3.00;1.40;;;12.20;99.90;;;;;;5003862;28;20087;-85
2022/12/27 11:37:21;;;;;;;4.13;1.42;;;12.20;99.90;;;;;;4958274;28;20482;-85
2022/12/27 11:39:49;;;;;;;2.85;1.50;;;12.30;99.90;;;;;;4990493;28;20363;-89
2022/12/27 11:42:16;;;;;;;3.22;1.45;;;12.50;99.90;;;;;;4991188;28;20045;-85
2022/12/27 11:44:48;;;;;;;4.07;1.70;;;12.70;99.90;;;;;;4954174;28;20600;-85
2022/12/27 11:47:51;;;;;;;2.55;1.40;;;12.90;99.90;;;;;;4989852;28;20029;-85
2022/12/27 11:50:25;;;;;;;4.53;1.50;;;13.10;99.90;;;;;;4988558;28;20409;-85
2022/12/27 11:53:09;;;;;;;3.47;1.40;;;13.20;99.90;;;;;;4979322;28;20042;-87
2022/12/27 11:55:51;;;;;;;3.10;1.40;;;13.20;99.90;;;;;;4972417;28;20041;-85
2022/12/27 11:58:51;;;;;;;3.50;1.58;;;13.10;99.90;;;;;;4958111;28;20025;-85
2022/12/27 12:01:59;;;;;;;3.17;1.40;;;13.00;99.90;;;;;;4975582;28;20363;-85
2022/12/27 12:04:45;;;;;;;3.22;1.50;;;12.80;99.90;;;;;;4979360;28;20030;-85
2022/12/27 12:07:55;;;;;;;3.90;1.30;;;12.60;99.90;;;;;;4979592;28;20483;-86
2022/12/27 12:10:52;;;;;;;2.80;1.50;;;12.40;99.90;;;;;;4956380;28;20041;-86
2022/12/27 12:13:51;;;;;;;2.88;1.23;;;12.30;99.90;;;;;;4969955;28;20081;-86
2022/12/27 12:16:55;;;;;;;2.45;1.00;;;12.10;99.90;;;;;;4965550;28;20265;-85
2022/12/27 12:19:49;;;;;;;2.05;1.15;;;12.00;99.90;;;;;;4915431;28;20058;-85
2022/12/27 12:22:30;;;;;;;2.55;1.40;;;11.90;99.90;;;;;;4923327;28;20381;-85
2022/12/27 12:24:59;;;;;;;3.13;1.50;;;11.80;99.90;;;;;;4960138;28;20368;-85
2022/12/27 12:27:46;;;;;;;2.20;1.33;;;11.70;99.90;;;;;;4972759;28;20045;-85
2022/12/27 12:30:49;;;;;;;4.00;1.40;;;11.70;99.90;;;;;;4964925;28;20522;-85
2022/12/27 12:33:53;;;;;;;4.72;1.75;;;11.70;99.90;;;;;;4983081;28;20068;-86
2022/12/27 12:36:24;;;;;;;3.92;1.70;;;11.60;99.90;;;;;;4984113;28;20161;-86
2022/12/27 12:39:14;;;;;;;2.37;1.57;;;11.60;99.90;;;;;;4958366;28;20030;-85
2022/12/27 12:41:52;;;;;;;2.85;1.33;;;11.50;99.90;;;;;;4953634;28;20120;-84
2022/12/27 12:44:18;;;;;;;3.33;1.70;;;11.50;99.90;;;;;;4958412;28;20137;-86
2022/12/27 12:47:02;;;;;;;4.37;1.90;;;11.50;99.90;;;;;;4920326;28;20102;-86
2022/12/27 12:49:45;;;;;;;3.67;1.70;;;11.40;99.90;;;;;;4972650;28;20498;-85
2022/12/27 12:52:17;;;;;;;3.58;1.80;;;11.40;99.90;;;;;;4980690;28;20604;-86
2022/12/27 12:55:01;;;;;;;3.53;1.50;;;11.40;99.90;;;;;;4996420;28;20041;-86
2022/12/27 12:57:47;;;;;;;4.20;1.60;;;11.40;99.90;;;;;;4993786;28;20116;-85
2022/12/27 13:00:19;;;;;;;4.87;1.50;;;11.30;99.90;;;;;;4955818;28;21498;-85
2022/12/27 13:03:03;;;;;;;3.03;1.73;;;11.30;99.90;;;;;;4988991;28;20033;-85
2022/12/27 13:05:55;;;;;;;5.68;1.90;;;11.30;99.90;;;;;;4992496;28;20037;-86
2022/12/27 13:08:29;;;;;;;3.50;1.60;;;11.30;99.90;;;;;;4982239;28;20030;-85
2022/12/27 13:11:26;;;;;;;5.53;1.70;;;11.20;99.90;;;;;;4982941;28;20312;-86
2022/12/27 13:14:18;;;;;;;3.33;1.90;;;11.10;99.90;;;;;;4970010;28;20655;-85
2022/12/27 13:17:01;;;;;;;3.95;1.70;;;11.10;99.90;;;;;;4988109;28;20022;-85
2022/12/27 13:19:35;;;;;;;2.92;1.38;;;11.10;99.90;;;;;;4978713;28;20139;-85
2022/12/27 13:22:37;;;;;;;5.05;1.80;;;11.10;99.90;;;;;;4984154;28;20042;-87
2022/12/27 13:25:41;;;;;;;1.95;1.20;;;11.10;99.90;;;;;;4962655;28;20367;-87
2022/12/27 13:28:15;;;;;;;6.90;2.30;;;11.10;99.90;;;;;;4989433;28;20018;-85
2022/12/27 13:31:04;;;;;;;3.05;1.60;;;11.10;99.90;;;;;;4986424;28;20216;-85
2022/12/27 13:33:45;;;;;;;3.78;1.80;;;11.10;99.90;;;;;;4991226;28;20612;-85
2022/12/27 13:36:33;;;;;;;3.22;1.70;;;11.10;99.90;;;;;;4977834;28;20100;-84
2022/12/27 13:39:24;;;;;;;5.07;1.98;;;11.10;99.90;;;;;;4966687;28;20455;-86
2022/12/27 13:42:15;;;;;;;4.83;2.40;;;11.10;99.90;;;;;;4978550;28;20052;-85
2022/12/27 13:45:07;;;;;;;4.32;2.20;;;11.10;99.90;;;;;;4985737;28;20036;-85
2022/12/27 13:47:49;;;;;;;4.15;1.65;;;11.10;99.90;;;;;;4969153;28;20531;-86
2022/12/27 13:50:52;;;;;;;5.25;1.80;;;11.10;99.90;;;;;;4991007;28;20726;-85
2022/12/27 13:53:39;;;;;;;3.38;1.60;;;11.10;99.90;;;;;;4999192;28;20041;-85
2022/12/27 13:56:20;;;;;;;4.53;1.80;;;11.20;99.90;;;;;;4979448;28;20510;-85
2022/12/27 13:59:11;;;;;;;2.72;1.40;;;11.20;99.90;;;;;;4955889;28;20033;-85
2022/12/27 14:02:14;;;;;;;2.40;1.30;;;11.20;99.90;;;;;;4974125;28;20088;-86
2022/12/27 14:05:05;;;;;;;2.60;1.50;;;11.20;99.90;;;;;;4988698;28;20026;-85
2022/12/27 14:08:01;;;;;;;3.92;1.40;;;11.30;99.90;;;;;;4969295;28;20044;-86
2022/12/27 14:10:51;;;;;;;3.17;1.30;;;11.30;99.90;;;;;;4945508;28;20520;-86
2022/12/27 14:13:38;;;;;;;2.38;1.30;;;11.40;99.90;;;;;;4972193;28;21131;-85
2022/12/27 14:16:23;;;;;;;3.22;1.38;;;11.50;99.90;;;;;;4954423;28;20250;-85
2022/12/27 14:19:39;;;;;;;6.38;1.92;;;11.60;99.90;;;;;;4963360;28;20254;-86
2022/12/27 14:22:16;;;;;;;2.85;1.20;;;11.60;99.90;;;;;;4910016;29;20623;-87
2022/12/27 14:25:28;;;;;;;2.93;1.20;;;11.60;99.90;;;;;;4898947;29;20098;-86
2022/12/27 14:28:48;;;;;;;4.32;1.30;;;11.60;99.90;;;;;;4978312;28;20430;-89
2022/12/27 14:31:32;;;;;;;2.88;1.20;;;11.60;99.90;;;;;;4871779;28;20208;-86
2022/12/27 14:34:48;;;;;;;3.22;1.20;;;11.60;99.90;;;;;;4970589;28;20053;-85
2022/12/27 14:37:44;;;;;;;3.80;1.25;;;11.60;99.90;;;;;;4975209;28;20065;-86
2022/12/27 14:40:22;;;;;;;2.10;1.20;;;11.50;99.90;;;;;;4982767;28;20102;-85
2022/12/27 14:43:18;;;;;;;3.55;1.40;;;11.50;99.90;;;;;;4986443;28;20029;-87
2022/12/27 14:46:15;;;;;;;3.70;1.42;;;11.40;99.90;;;;;;4963287;28;20532;-86
2022/12/27 14:49:07;;;;;;;4.70;1.70;;;11.40;99.90;;;;;;4977321;28;20032;-86
2022/12/27 14:51:57;;;;;;;4.95;1.40;;;11.30;99.90;;;;;;4969198;28;20286;-85
2022/12/27 14:55:01;;;;;;;3.07;1.43;;;11.20;99.90;;;;;;4959533;28;20030;-85
2022/12/27 14:57:45;;;;;;;4.38;1.60;;;11.20;99.90;;;;;;4980629;28;20053;-85
2022/12/27 15:00:16;;;;;;;4.00;1.60;;;11.10;99.90;;;;;;4959611;28;20678;-87
2022/12/27 15:03:08;;;;;;;4.95;1.60;;;11.00;99.90;;;;;;4965886;28;20415;-85
2022/12/27 15:06:03;;;;;;;5.05;1.60;;;11.00;99.90;;;;;;4958771;28;20178;-85
2022/12/27 15:09:02;;;;;;;3.70;1.43;;;10.90;99.90;;;;;;4983895;28;20029;-85
2022/12/27 15:11:46;;;;;;;3.33;1.58;;;10.90;99.90;;;;;;4971229;28;20427;-85
2022/12/27 15:15:00;;;;;;;4.22;1.50;;;10.80;99.90;;;;;;4983735;28;20659;-86
2022/12/27 15:17:28;;;;;;;3.05;1.40;;;10.70;99.90;;;;;;4946179;28;20045;-85